sensor_id;sensor_type;location;lat;lon;timestamp;pressure;altitude;pressure_sealevel;temperature;humidity
10470;BME280;5282;47.052;15.458;2024-03-23T00:54:59;97085.06;;;8.81;100.00
10470;BME280;5282;47.052;15.458;2024-03-23T00:57:26;97084.25;;;8.72;100.00
10470;BME280;5282;47.052;15.458;2024-03-23T00:59:52;97083.25;;;8.73;100.00
10470;BME280;5282;47.052;15.458;2024-03-23T01:02:19;97092.47;;;8.62;100.00
10470;BME280;5282;47.052;15.458;2024-03-23T01:04:45;97088.09;;;8.61;100.00
10470;BME280;5282;47.052;15.458;2024-03-23T01:07:13;97083.91;;;8.59;100.00
10470;BME280;5282;47.052;15.458;2024-03-23T01:09:41;97082.53;;;8.55;100.00
10470;BME280;5282;47.052;15.458;2024-03-23T01:12:08;97075.59;;;8.36;100.00
10470;BME280;5282;47.052;15.458;2024-03-23T01:14:34;97068.72;;;8.33;100.00
10470;BME280;5282;47.052;15.458;2024-03-23T01:17:02;97074.97;;;8.33;100.00
10470;BME280;5282;47.052;15.458;2024-03-23T01:19:28;97073.47;;;8.39;100.00
10470;BME280;5282;47.052;15.458;2024-03-23T01:21:56;97061.22;;;8.45;100.00
10470;BME280;5282;47.052;15.458;2024-03-23T01:24:22;97055.91;;;8.53;100.00
10470;BME280;5282;47.052;15.458;2024-03-23T01:26:52;97058.91;;;8.50;100.00
10470;BME280;5282;47.052;15.458;2024-03-23T01:29:19;97052.34;;;8.53;100.00
10470;BME280;5282;47.052;15.458;2024-03-23T01:31:47;97054.53;;;8.57;100.00
10470;BME280;5282;47.052;15.458;2024-03-23T01:34:12;97056.22;;;8.50;100.00
10470;BME280;5282;47.052;15.458;2024-03-23T01:36:39;97054.53;;;8.57;100.00
10470;BME280;5282;47.052;15.458;2024-03-23T01:39:05;97057.19;;;8.32;100.00
10470;BME280;5282;47.052;15.458;2024-03-23T01:41:35;97056.44;;;8.06;100.00
10470;BME280;5282;47.052;15.458;2024-03-23T01:44:05;97052.38;;;7.93;100.00
10470;BME280;5282;47.052;15.458;2024-03-23T01:46:34;97046.63;;;7.80;100.00
10470;BME280;5282;47.052;15.458;2024-03-23T01:49:00;97035.19;;;7.61;100.00
10470;BME280;5282;47.052;15.458;2024-03-23T01:51:28;97041.22;;;7.63;100.00
10470;BME280;5282;47.052;15.458;2024-03-23T01:53:56;97031.91;;;7.76;100.00
10470;BME280;5282;47.052;15.458;2024-03-23T01:56:23;97035.41;;;7.76;100.00
10470;BME280;5282;47.052;15.458;2024-03-23T01:58:49;97032.03;;;7.74;100.00
10470;BME280;5282;47.052;15.458;2024-03-23T02:01:17;97029.31;;;7.57;100.00
10470;BME280;5282;47.052;15.458;2024-03-23T02:03:45;97020.41;;;7.49;100.00
10470;BME280;5282;47.052;15.458;2024-03-23T02:06:12;97012.00;;;7.44;100.00
10470;BME280;5282;47.052;15.458;2024-03-23T02:08:39;97008.50;;;7.43;100.00
10470;BME280;5282;47.052;15.458;2024-03-23T02:11:06;97011.34;;;7.41;100.00
10470;BME280;5282;47.052;15.458;2024-03-23T02:13:32;97007.00;;;7.49;100.00
10470;BME280;5282;47.052;15.458;2024-03-23T02:15:59;97002.34;;;7.51;100.00
10470;BME280;5282;47.052;15.458;2024-03-23T02:18:26;96996.56;;;7.37;100.00
10470;BME280;5282;47.052;15.458;2024-03-23T02:20:53;96993.94;;;7.46;100.00
10470;BME280;5282;47.052;15.458;2024-03-23T02:23:20;96996.28;;;7.49;100.00
10470;BME280;5282;47.052;15.458;2024-03-23T02:25:47;96984.41;;;7.60;100.00
10470;BME280;5282;47.052;15.458;2024-03-23T02:28:13;96983.22;;;7.54;100.00
10470;BME280;5282;47.052;15.458;2024-03-23T02:30:40;96982.69;;;7.42;100.00
10470;BME280;5282;47.052;15.458;2024-03-23T02:33:06;96983.88;;;7.39;100.00
10470;BME280;5282;47.052;15.458;2024-03-23T02:35:33;96972.81;;;7.43;100.00
10470;BME280;5282;47.052;15.458;2024-03-23T02:38:01;96970.69;;;7.46;100.00
10470;BME280;5282;47.052;15.458;2024-03-23T02:40:29;96964.78;;;7.43;100.00
10470;BME280;5282;47.052;15.458;2024-03-23T02:42:55;96969.19;;;7.52;100.00
10470;BME280;5282;47.052;15.458;2024-03-23T02:45:22;96957.28;;;7.54;100.00
10470;BME280;5282;47.052;15.458;2024-03-23T02:47:48;96966.41;;;7.27;100.00
10470;BME280;5282;47.052;15.458;2024-03-23T02:50:17;96968.38;;;7.17;100.00
10470;BME280;5282;47.052;15.458;2024-03-23T02:52:43;96968.72;;;7.22;100.00
10470;BME280;5282;47.052;15.458;2024-03-23T02:55:10;96960.38;;;7.25;100.00
10470;BME280;5282;47.052;15.458;2024-03-23T02:57:37;96959.75;;;7.39;100.00
10470;BME280;5282;47.052;15.458;2024-03-23T03:00:05;96959.06;;;7.37;100.00
10470;BME280;5282;47.052;15.458;2024-03-23T03:02:34;96957.41;;;7.36;100.00
10470;BME280;5282;47.052;15.458;2024-03-23T03:05:03;96950.25;;;7.45;100.00
10470;BME280;5282;47.052;15.458;2024-03-23T03:07:30;96951.03;;;7.29;100.00
10470;BME280;5282;47.052;15.458;2024-03-23T03:09:57;96950.97;;;7.21;100.00
10470;BME280;5282;47.052;15.458;2024-03-23T03:12:23;96948.03;;;6.98;100.00
10470;BME280;5282;47.052;15.458;2024-03-23T03:14:51;96950.97;;;6.86;100.00
10470;BME280;5282;47.052;15.458;2024-03-23T03:17:17;96946.72;;;6.75;100.00
10470;BME280;5282;47.052;15.458;2024-03-23T03:19:44;96946.47;;;6.60;100.00
10470;BME280;5282;47.052;15.458;2024-03-23T03:22:15;96945.19;;;6.46;100.00
10470;BME280;5282;47.052;15.458;2024-03-23T03:24:42;96937.41;;;6.53;100.00
10470;BME280;5282;47.052;15.458;2024-03-23T03:27:08;96941.59;;;6.56;100.00
10470;BME280;5282;47.052;15.458;2024-03-23T03:29:37;96940.63;;;6.65;100.00
10470;BME280;5282;47.052;15.458;2024-03-23T03:32:05;96940.81;;;6.63;100.00
10470;BME280;5282;47.052;15.458;2024-03-23T03:34:31;96939.59;;;6.31;100.00
10470;BME280;5282;47.052;15.458;2024-03-23T03:36:58;96933.63;;;6.01;100.00
10470;BME280;5282;47.052;15.458;2024-03-23T03:39:25;96947.34;;;5.89;100.00
10470;BME280;5282;47.052;15.458;2024-03-23T03:41:52;96938.81;;;5.85;100.00
10470;BME280;5282;47.052;15.458;2024-03-23T03:44:18;96937.38;;;5.91;100.00
10470;BME280;5282;47.052;15.458;2024-03-23T03:46:44;96932.47;;;6.04;100.00
10470;BME280;5282;47.052;15.458;2024-03-23T03:49:12;96926.34;;;5.94;100.00
10470;BME280;5282;47.052;15.458;2024-03-23T03:51:39;96919.66;;;5.90;100.00
10470;BME280;5282;47.052;15.458;2024-03-23T03:54:06;96919.88;;;5.78;100.00
10470;BME280;5282;47.052;15.458;2024-03-23T03:56:31;96919.72;;;5.80;100.00
10470;BME280;5282;47.052;15.458;2024-03-23T03:58:58;96918.25;;;5.85;100.00
10470;BME280;5282;47.052;15.458;2024-03-23T04:01:24;96912.84;;;5.95;100.00
10470;BME280;5282;47.052;15.458;2024-03-23T04:03:51;96907.66;;;6.12;100.00
10470;BME280;5282;47.052;15.458;2024-03-23T04:06:21;96910.47;;;6.28;100.00
10470;BME280;5282;47.052;15.458;2024-03-23T04:08:49;96913.72;;;6.40;100.00
10470;BME280;5282;47.052;15.458;2024-03-23T04:11:15;96909.22;;;6.41;100.00
10470;BME280;5282;47.052;15.458;2024-03-23T04:13:42;96909.75;;;6.44;100.00
10470;BME280;5282;47.052;15.458;2024-03-23T04:16:08;96900.09;;;6.25;100.00
10470;BME280;5282;47.052;15.458;2024-03-23T04:18:36;96889.81;;;6.12;100.00
10470;BME280;5282;47.052;15.458;2024-03-23T04:21:02;96885.81;;;6.16;100.00
10470;BME280;5282;47.052;15.458;2024-03-23T04:23:30;96886.19;;;6.22;100.00
10470;BME280;5282;47.052;15.458;2024-03-23T04:26:03;96894.59;;;6.27;100.00
10470;BME280;5282;47.052;15.458;2024-03-23T04:28:31;96887.22;;;6.29;100.00
10470;BME280;5282;47.052;15.458;2024-03-23T04:31:03;96879.78;;;6.32;100.00
10470;BME280;5282;47.052;15.458;2024-03-23T04:33:33;96881.09;;;6.37;100.00
10470;BME280;5282;47.052;15.458;2024-03-23T04:36:01;96884.69;;;6.45;100.00
10470;BME280;5282;47.052;15.458;2024-03-23T04:38:28;96878.69;;;6.52;100.00
10470;BME280;5282;47.052;15.458;2024-03-23T04:40:57;96879.59;;;6.60;100.00
10470;BME280;5282;47.052;15.458;2024-03-23T04:43:25;96876.28;;;6.67;100.00
10470;BME280;5282;47.052;15.458;2024-03-23T04:45:52;96867.25;;;6.68;100.00
10470;BME280;5282;47.052;15.458;2024-03-23T04:48:20;96869.91;;;6.68;100.00
10470;BME280;5282;47.052;15.458;2024-03-23T04:50:48;96869.97;;;6.76;100.00
10470;BME280;5282;47.052;15.458;2024-03-23T04:53:16;96868.44;;;6.73;100.00
10470;BME280;5282;47.052;15.458;2024-03-23T04:55:43;96873.28;;;6.70;100.00
10470;BME280;5282;47.052;15.458;2024-03-23T04:58:11;96870.94;;;6.67;100.00
10470;BME280;5282;47.052;15.458;2024-03-23T05:00:37;96871.13;;;6.73;100.00
10470;BME280;5282;47.052;15.458;2024-03-23T05:03:05;96865.13;;;6.71;100.00
10470;BME280;5282;47.052;15.458;2024-03-23T05:05:31;96862.78;;;6.76;100.00
10470;BME280;5282;47.052;15.458;2024-03-23T05:07:58;96865.44;;;6.76;100.00
10470;BME280;5282;47.052;15.458;2024-03-23T05:10:25;96856.44;;;6.77;100.00
10470;BME280;5282;47.052;15.458;2024-03-23T05:12:52;96852.25;;;6.75;100.00
10470;BME280;5282;47.052;15.458;2024-03-23T05:15:19;96854.94;;;6.83;100.00
10470;BME280;5282;47.052;15.458;2024-03-23T05:17:46;96847.44;;;6.87;100.00
10470;BME280;5282;47.052;15.458;2024-03-23T05:20:12;96838.09;;;6.91;100.00
10470;BME280;5282;47.052;15.458;2024-03-23T05:22:39;96843.53;;;6.73;100.00
10470;BME280;5282;47.052;15.458;2024-03-23T05:25:05;96841.31;;;6.60;100.00
10470;BME280;5282;47.052;15.458;2024-03-23T05:27:33;96849.72;;;6.73;100.00
10470;BME280;5282;47.052;15.458;2024-03-23T05:29:59;96851.44;;;6.83;100.00
10470;BME280;5282;47.052;15.458;2024-03-23T05:32:27;96850.31;;;6.93;100.00
10470;BME280;5282;47.052;15.458;2024-03-23T05:34:53;96843.16;;;7.02;100.00
10470;BME280;5282;47.052;15.458;2024-03-23T05:37:22;96851.31;;;6.92;100.00
10470;BME280;5282;47.052;15.458;2024-03-23T05:39:48;96835.75;;;6.96;100.00
10470;BME280;5282;47.052;15.458;2024-03-23T05:42:16;96831.78;;;7.08;100.00
10470;BME280;5282;47.052;15.458;2024-03-23T05:44:43;96834.50;;;7.25;100.00
10470;BME280;5282;47.052;15.458;2024-03-23T05:47:10;96828.84;;;7.45;100.00
10470;BME280;5282;47.052;15.458;2024-03-23T05:49:40;96824.53;;;7.52;100.00
10470;BME280;5282;47.052;15.458;2024-03-23T05:52:08;96821.84;;;7.52;100.00
10470;BME280;5282;47.052;15.458;2024-03-23T05:54:34;96819.00;;;7.53;100.00
10470;BME280;5282;47.052;15.458;2024-03-23T05:57:01;96822.38;;;7.80;100.00
10470;BME280;5282;47.052;15.458;2024-03-23T05:59:27;96817.69;;;7.91;100.00
10470;BME280;5282;47.052;15.458;2024-03-23T06:01:54;96817.00;;;7.88;100.00
10470;BME280;5282;47.052;15.458;2024-03-23T06:04:20;96824.88;;;7.74;100.00
10470;BME280;5282;47.052;15.458;2024-03-23T06:06:50;96821.69;;;7.62;100.00
10470;BME280;5282;47.052;15.458;2024-03-23T06:09:17;96821.84;;;7.77;100.00
10470;BME280;5282;47.052;15.458;2024-03-23T06:11:44;96820.19;;;7.76;100.00
10470;BME280;5282;47.052;15.458;2024-03-23T06:14:11;96810.31;;;7.68;100.00
10470;BME280;5282;47.052;15.458;2024-03-23T06:16:37;96810.47;;;7.75;100.00
10470;BME280;5282;47.052;15.458;2024-03-23T06:19:04;96803.44;;;7.82;100.00
10470;BME280;5282;47.052;15.458;2024-03-23T06:21:32;96809.94;;;7.96;100.00
10470;BME280;5282;47.052;15.458;2024-03-23T06:23:59;96806.13;;;7.98;100.00
10470;BME280;5282;47.052;15.458;2024-03-23T06:26:26;96805.25;;;8.06;100.00
10470;BME280;5282;47.052;15.458;2024-03-23T06:28:52;96796.56;;;7.87;100.00
10470;BME280;5282;47.052;15.458;2024-03-23T06:31:19;96802.44;;;7.83;100.00
10470;BME280;5282;47.052;15.458;2024-03-23T06:33:45;96799.03;;;8.14;100.00
10470;BME280;5282;47.052;15.458;2024-03-23T06:36:12;96791.94;;;8.38;100.00
10470;BME280;5282;47.052;15.458;2024-03-23T06:38:38;96786.72;;;8.44;100.00
10470;BME280;5282;47.052;15.458;2024-03-23T06:41:06;96795.94;;;8.58;100.00
10470;BME280;5282;47.052;15.458;2024-03-23T06:43:32;96782.84;;;8.63;100.00
10470;BME280;5282;47.052;15.458;2024-03-23T06:45:59;96779.44;;;8.78;100.00
10470;BME280;5282;47.052;15.458;2024-03-23T06:48:25;96791.84;;;8.79;100.00
10470;BME280;5282;47.052;15.458;2024-03-23T06:50:55;96793.59;;;8.63;100.00
10470;BME280;5282;47.052;15.458;2024-03-23T06:53:22;96795.53;;;8.78;100.00
10470;BME280;5282;47.052;15.458;2024-03-23T06:55:50;96788.53;;;9.00;100.00
10470;BME280;5282;47.052;15.458;2024-03-23T06:58:20;96782.00;;;9.03;100.00
10470;BME280;5282;47.052;15.458;2024-03-23T07:00:46;96783.03;;;8.93;100.00
10470;BME280;5282;47.052;15.458;2024-03-23T07:03:14;96784.81;;;9.09;100.00
10470;BME280;5282;47.052;15.458;2024-03-23T07:05:40;96780.06;;;9.20;100.00
10470;BME280;5282;47.052;15.458;2024-03-23T07:08:08;96779.66;;;9.31;100.00
10470;BME280;5282;47.052;15.458;2024-03-23T07:10:34;96779.53;;;9.24;100.00
10470;BME280;5282;47.052;15.458;2024-03-23T07:13:01;96784.69;;;9.03;100.00
10470;BME280;5282;47.052;15.458;2024-03-23T07:15:28;96780.22;;;9.18;100.00
10470;BME280;5282;47.052;15.458;2024-03-23T07:17:55;96775.19;;;9.15;100.00
10470;BME280;5282;47.052;15.458;2024-03-23T07:20:21;96776.44;;;9.36;100.00
10470;BME280;5282;47.052;15.458;2024-03-23T07:22:48;96776.56;;;9.43;100.00
10470;BME280;5282;47.052;15.458;2024-03-23T07:25:14;96771.28;;;9.49;100.00
10470;BME280;5282;47.052;15.458;2024-03-23T07:27:42;96774.16;;;9.48;100.00
10470;BME280;5282;47.052;15.458;2024-03-23T07:30:08;96770.22;;;9.59;100.00
10470;BME280;5282;47.052;15.458;2024-03-23T07:32:36;96772.06;;;9.58;100.00
10470;BME280;5282;47.052;15.458;2024-03-23T07:35:03;96766.38;;;9.30;100.00
10470;BME280;5282;47.052;15.458;2024-03-23T07:37:30;96766.28;;;9.46;100.00
10470;BME280;5282;47.052;15.458;2024-03-23T07:39:56;96764.84;;;9.59;100.00
10470;BME280;5282;47.052;15.458;2024-03-23T07:42:25;96759.63;;;9.57;100.00
10470;BME280;5282;47.052;15.458;2024-03-23T07:44:52;96757.22;;;9.47;100.00
10470;BME280;5282;47.052;15.458;2024-03-23T07:47:20;96770.75;;;9.31;100.00
10470;BME280;5282;47.052;15.458;2024-03-23T07:49:47;96766.13;;;9.63;100.00
10470;BME280;5282;47.052;15.458;2024-03-23T07:52:14;96762.66;;;9.77;100.00
10470;BME280;5282;47.052;15.458;2024-03-23T07:54:40;96764.78;;;9.67;100.00
10470;BME280;5282;47.052;15.458;2024-03-23T07:57:07;96764.41;;;9.70;100.00
10470;BME280;5282;47.052;15.458;2024-03-23T07:59:33;96763.41;;;9.71;100.00
10470;BME280;5282;47.052;15.458;2024-03-23T08:02:00;96765.78;;;9.89;100.00
10470;BME280;5282;47.052;15.458;2024-03-23T08:04:26;96756.31;;;9.93;100.00
10470;BME280;5282;47.052;15.458;2024-03-23T08:06:55;96757.63;;;9.97;100.00
10470;BME280;5282;47.052;15.458;2024-03-23T08:09:21;96745.19;;;10.11;100.00
10470;BME280;5282;47.052;15.458;2024-03-23T08:11:48;96751.91;;;10.30;100.00
10470;BME280;5282;47.052;15.458;2024-03-23T08:14:14;96742.53;;;10.41;100.00
10470;BME280;5282;47.052;15.458;2024-03-23T08:16:41;96744.84;;;10.59;100.00
10470;BME280;5282;47.052;15.458;2024-03-23T08:19:14;96741.25;;;10.52;100.00
10470;BME280;5282;47.052;15.458;2024-03-23T08:21:40;96738.38;;;10.69;100.00
10470;BME280;5282;47.052;15.458;2024-03-23T08:24:08;96729.94;;;10.57;100.00
10470;BME280;5282;47.052;15.458;2024-03-23T08:26:34;96725.91;;;10.83;100.00
10470;BME280;5282;47.052;15.458;2024-03-23T08:29:03;96719.50;;;10.84;100.00
10470;BME280;5282;47.052;15.458;2024-03-23T08:31:30;96724.41;;;10.95;100.00
10470;BME280;5282;47.052;15.458;2024-03-23T08:33:56;96718.13;;;11.09;100.00
10470;BME280;5282;47.052;15.458;2024-03-23T08:36:22;96715.56;;;11.23;100.00
10470;BME280;5282;47.052;15.458;2024-03-23T08:38:49;96707.22;;;11.39;100.00
10470;BME280;5282;47.052;15.458;2024-03-23T08:41:17;96711.00;;;11.67;100.00
10470;BME280;5282;47.052;15.458;2024-03-23T08:43:44;96698.84;;;11.78;100.00
10470;BME280;5282;47.052;15.458;2024-03-23T08:46:10;96691.63;;;11.85;100.00
10470;BME280;5282;47.052;15.458;2024-03-23T08:48:39;96699.50;;;11.86;100.00
10470;BME280;5282;47.052;15.458;2024-03-23T08:51:06;96696.69;;;11.66;100.00
10470;BME280;5282;47.052;15.458;2024-03-23T08:53:34;96696.44;;;11.61;100.00
10470;BME280;5282;47.052;15.458;2024-03-23T08:56:01;96690.28;;;11.46;100.00
10470;BME280;5282;47.052;15.458;2024-03-23T08:58:30;96699.22;;;11.75;100.00
10470;BME280;5282;47.052;15.458;2024-03-23T09:01:02;96687.97;;;11.93;100.00
10470;BME280;5282;47.052;15.458;2024-03-23T09:03:29;96675.25;;;12.15;100.00
10470;BME280;5282;47.052;15.458;2024-03-23T09:05:55;96677.81;;;12.23;100.00
10470;BME280;5282;47.052;15.458;2024-03-23T09:08:23;96665.31;;;12.64;100.00
10470;BME280;5282;47.052;15.458;2024-03-23T09:10:49;96662.91;;;12.89;100.00
10470;BME280;5282;47.052;15.458;2024-03-23T09:13:16;96655.63;;;12.96;100.00
10470;BME280;5282;47.052;15.458;2024-03-23T09:15:48;96650.19;;;12.83;100.00
10470;BME280;5282;47.052;15.458;2024-03-23T09:18:15;96644.50;;;13.33;100.00
10470;BME280;5282;47.052;15.458;2024-03-23T09:20:41;96639.31;;;13.72;100.00
10470;BME280;5282;47.052;15.458;2024-03-23T09:23:07;96637.44;;;13.52;99.25
10470;BME280;5282;47.052;15.458;2024-03-23T09:25:36;96638.06;;;13.68;99.56
10470;BME280;5282;47.052;15.458;2024-03-23T09:28:04;96628.06;;;13.75;92.19
10470;BME280;5282;47.052;15.458;2024-03-23T09:30:29;96624.31;;;13.83;93.80
10470;BME280;5282;47.052;15.458;2024-03-23T09:32:58;96618.47;;;13.93;94.34
10470;BME280;5282;47.052;15.458;2024-03-23T09:35:24;96614.84;;;14.26;90.94
10470;BME280;5282;47.052;15.458;2024-03-23T09:37:51;96607.25;;;14.48;90.59
10470;BME280;5282;47.052;15.458;2024-03-23T09:40:16;96607.31;;;14.87;91.06
10470;BME280;5282;47.052;15.458;2024-03-23T09:42:49;96597.19;;;14.69;83.38
10470;BME280;5282;47.052;15.458;2024-03-23T09:45:17;96599.94;;;15.26;82.77
10470;BME280;5282;47.052;15.458;2024-03-23T09:47:46;96599.00;;;15.89;74.17
10470;BME280;5282;47.052;15.458;2024-03-23T09:50:14;96594.84;;;15.87;74.62
10470;BME280;5282;47.052;15.458;2024-03-23T09:52:41;96588.84;;;16.22;75.41
10470;BME280;5282;47.052;15.458;2024-03-23T09:55:08;96586.41;;;16.32;67.61
10470;BME280;5282;47.052;15.458;2024-03-23T09:57:36;96581.06;;;16.26;68.83
10470;BME280;5282;47.052;15.458;2024-03-23T10:00:02;96584.16;;;16.11;73.95
10470;BME280;5282;47.052;15.458;2024-03-23T10:02:29;96588.00;;;16.22;70.15
10470;BME280;5282;47.052;15.458;2024-03-23T10:04:55;96576.59;;;16.50;68.80
10470;BME280;5282;47.052;15.458;2024-03-23T10:07:25;96572.69;;;16.27;71.50
10470;BME280;5282;47.052;15.458;2024-03-23T10:09:51;96571.56;;;15.98;65.43
10470;BME280;5282;47.052;15.458;2024-03-23T10:12:19;96558.88;;;16.29;63.86
10470;BME280;5282;47.052;15.458;2024-03-23T10:14:45;96561.84;;;16.27;64.00
10470;BME280;5282;47.052;15.458;2024-03-23T10:17:14;96554.28;;;16.11;63.79
10470;BME280;5282;47.052;15.458;2024-03-23T10:19:40;96556.03;;;15.86;63.88
10470;BME280;5282;47.052;15.458;2024-03-23T10:22:09;96550.84;;;15.60;66.90
10470;BME280;5282;47.052;15.458;2024-03-23T10:24:37;96553.97;;;15.38;68.09
10470;BME280;5282;47.052;15.458;2024-03-23T10:27:04;96549.31;;;16.26;69.28
10470;BME280;5282;47.052;15.458;2024-03-23T10:29:30;96542.97;;;15.95;67.36
10470;BME280;5282;47.052;15.458;2024-03-23T10:32:10;96543.41;;;16.29;67.70
10470;BME280;5282;47.052;15.458;2024-03-23T10:34:37;96534.44;;;16.90;69.30
10470;BME280;5282;47.052;15.458;2024-03-23T10:37:05;96523.88;;;17.60;66.86
10470;BME280;5282;47.052;15.458;2024-03-23T10:39:33;96523.41;;;17.98;61.95
10470;BME280;5282;47.052;15.458;2024-03-23T10:42:04;96523.75;;;18.43;61.29
10470;BME280;5282;47.052;15.458;2024-03-23T10:44:31;96522.16;;;18.30;60.70
10470;BME280;5282;47.052;15.458;2024-03-23T10:46:59;96517.47;;;18.71;58.32
10470;BME280;5282;47.052;15.458;2024-03-23T10:49:26;96514.44;;;19.14;56.12
10470;BME280;5282;47.052;15.458;2024-03-23T10:51:57;96493.34;;;19.26;50.17
10470;BME280;5282;47.052;15.458;2024-03-23T10:54:24;96497.13;;;19.59;51.47
10470;BME280;5282;47.052;15.458;2024-03-23T10:56:53;96497.00;;;19.88;48.52
10470;BME280;5282;47.052;15.458;2024-03-23T10:59:22;96498.41;;;20.13;49.45
10470;BME280;5282;47.052;15.458;2024-03-23T11:01:55;96486.13;;;19.93;47.29
10470;BME280;5282;47.052;15.458;2024-03-23T11:04:29;96483.41;;;19.93;49.64
10470;BME280;5282;47.052;15.458;2024-03-23T11:06:57;96468.78;;;20.27;47.75
10470;BME280;5282;47.052;15.458;2024-03-23T11:09:39;96464.75;;;20.34;42.78
10470;BME280;5282;47.052;15.458;2024-03-23T11:12:25;96456.41;;;19.97;43.51
10470;BME280;5282;47.052;15.458;2024-03-23T11:14:53;96441.16;;;20.01;45.11
10470;BME280;5282;47.052;15.458;2024-03-23T11:17:22;96436.34;;;20.90;45.63
10470;BME280;5282;47.052;15.458;2024-03-23T11:19:56;96434.84;;;21.53;45.42
10470;BME280;5282;47.052;15.458;2024-03-23T11:22:42;96430.47;;;20.49;43.14
10470;BME280;5282;47.052;15.458;2024-03-23T11:25:15;96419.84;;;20.53;45.34
10470;BME280;5282;47.052;15.458;2024-03-23T11:27:43;96415.41;;;21.06;44.16
10470;BME280;5282;47.052;15.458;2024-03-23T11:30:16;96405.56;;;21.53;45.41
10470;BME280;5282;47.052;15.458;2024-03-23T11:32:44;96399.63;;;21.62;46.46
10470;BME280;5282;47.052;15.458;2024-03-23T11:35:24;96393.19;;;21.99;43.45
10470;BME280;5282;47.052;15.458;2024-03-23T11:38:04;96392.00;;;21.74;41.94
10470;BME280;5282;47.052;15.458;2024-03-23T11:40:31;96385.28;;;21.06;43.64
10470;BME280;5282;47.052;15.458;2024-03-23T11:42:59;96380.34;;;20.11;44.39
10470;BME280;5282;47.052;15.458;2024-03-23T11:45:26;96381.63;;;20.58;46.05
10470;BME280;5282;47.052;15.458;2024-03-23T11:48:05;96365.91;;;21.13;47.31
10470;BME280;5282;47.052;15.458;2024-03-23T11:50:31;96355.69;;;21.46;44.53
10470;BME280;5282;47.052;15.458;2024-03-23T11:53:11;96359.69;;;21.76;44.86
10470;BME280;5282;47.052;15.458;2024-03-23T11:55:45;96345.00;;;22.13;43.58
10470;BME280;5282;47.052;15.458;2024-03-23T11:58:13;96351.03;;;22.21;43.80
10470;BME280;5282;47.052;15.458;2024-03-23T12:00:41;96342.91;;;22.83;41.83
10470;BME280;5282;47.052;15.458;2024-03-23T12:03:08;96331.91;;;22.83;41.36
10470;BME280;5282;47.052;15.458;2024-03-23T12:05:36;96336.84;;;22.55;43.45
10470;BME280;5282;47.052;15.458;2024-03-23T12:08:17;96323.91;;;22.24;43.26
10470;BME280;5282;47.052;15.458;2024-03-23T12:10:46;96316.25;;;22.93;43.07
10470;BME280;5282;47.052;15.458;2024-03-23T12:13:15;96307.72;;;23.00;41.65
10470;BME280;5282;47.052;15.458;2024-03-23T12:15:44;96304.16;;;23.20;40.85
10470;BME280;5282;47.052;15.458;2024-03-23T12:18:12;96297.81;;;23.09;41.84
10470;BME280;5282;47.052;15.458;2024-03-23T12:20:38;96297.19;;;23.49;40.60
10470;BME280;5282;47.052;15.458;2024-03-23T12:23:09;96292.38;;;23.04;40.17
10470;BME280;5282;47.052;15.458;2024-03-23T12:25:35;96289.69;;;22.47;41.79
10470;BME280;5282;47.052;15.458;2024-03-23T12:28:03;96287.22;;;22.61;42.27
10470;BME280;5282;47.052;15.458;2024-03-23T12:30:32;96275.16;;;22.52;41.10
10470;BME280;5282;47.052;15.458;2024-03-23T12:33:01;96274.03;;;22.69;40.33
10470;BME280;5282;47.052;15.458;2024-03-23T12:35:28;96261.41;;;22.68;40.58
10470;BME280;5282;47.052;15.458;2024-03-23T12:37:55;96262.47;;;22.98;39.44
10470;BME280;5282;47.052;15.458;2024-03-23T12:40:21;96269.03;;;23.07;38.06
10470;BME280;5282;47.052;15.458;2024-03-23T12:42:48;96254.56;;;22.34;38.42
10470;BME280;5282;47.052;15.458;2024-03-23T12:45:14;96249.88;;;21.72;38.50
10470;BME280;5282;47.052;15.458;2024-03-23T12:47:41;96249.97;;;21.30;39.78
10470;BME280;5282;47.052;15.458;2024-03-23T12:50:09;96249.72;;;21.41;39.93
10470;BME280;5282;47.052;15.458;2024-03-23T12:52:36;96243.56;;;21.82;40.18
10470;BME280;5282;47.052;15.458;2024-03-23T12:55:03;96241.41;;;22.10;40.37
10470;BME280;5282;47.052;15.458;2024-03-23T12:57:31;96243.63;;;22.24;40.43
10470;BME280;5282;47.052;15.458;2024-03-23T12:59:57;96232.88;;;22.69;38.43
10470;BME280;5282;47.052;15.458;2024-03-23T13:02:24;96239.72;;;22.76;38.98
10470;BME280;5282;47.052;15.458;2024-03-23T13:04:50;96234.56;;;22.44;36.12
10470;BME280;5282;47.052;15.458;2024-03-23T13:07:20;96225.22;;;22.65;36.71
10470;BME280;5282;47.052;15.458;2024-03-23T13:09:47;96225.53;;;22.12;39.36
10470;BME280;5282;47.052;15.458;2024-03-23T13:12:14;96218.38;;;21.96;38.23
10470;BME280;5282;47.052;15.458;2024-03-23T13:14:40;96206.47;;;21.33;39.75
10470;BME280;5282;47.052;15.458;2024-03-23T13:17:08;96208.53;;;21.79;38.44
10470;BME280;5282;47.052;15.458;2024-03-23T13:19:34;96212.91;;;22.32;39.16
10470;BME280;5282;47.052;15.458;2024-03-23T13:22:01;96207.94;;;21.67;37.39
10470;BME280;5282;47.052;15.458;2024-03-23T13:24:28;96204.69;;;22.06;36.47
10470;BME280;5282;47.052;15.458;2024-03-23T13:26:55;96199.94;;;20.76;37.38
10470;BME280;5282;47.052;15.458;2024-03-23T13:29:22;96197.91;;;20.61;38.48
10470;BME280;5282;47.052;15.458;2024-03-23T13:31:50;96193.84;;;20.63;37.98
10470;BME280;5282;47.052;15.458;2024-03-23T13:34:17;96190.94;;;20.38;37.39
10470;BME280;5282;47.052;15.458;2024-03-23T13:36:44;96189.63;;;20.93;39.01
10470;BME280;5282;47.052;15.458;2024-03-23T13:39:11;96179.38;;;21.42;38.06
10470;BME280;5282;47.052;15.458;2024-03-23T13:41:40;96180.31;;;20.89;37.77
10470;BME280;5282;47.052;15.458;2024-03-23T13:44:06;96181.19;;;20.09;39.01
10470;BME280;5282;47.052;15.458;2024-03-23T13:46:33;96186.22;;;20.28;39.38
10470;BME280;5282;47.052;15.458;2024-03-23T13:49:00;96182.75;;;20.80;39.53
10470;BME280;5282;47.052;15.458;2024-03-23T13:51:27;96179.09;;;21.43;38.78
10470;BME280;5282;47.052;15.458;2024-03-23T13:53:53;96184.69;;;20.85;38.30
10470;BME280;5282;47.052;15.458;2024-03-23T13:56:20;96175.63;;;20.85;39.01